Time;durP1;ratioP1;P1;durP2;ratioP2;P2;SDS_P1;SDS_P2;PMS_P1;PMS_P2;Temp;Humidity;BMP_temperature;BMP_pressure;BME280_temperature;BME280_humidity;BME280_pressure;Samples;Min_cycle;Max_cycle;Signal;HPM_P1;HPM_P2
2023/03/14 00:01:26;;;;;;;4.43;2.20;;;13.10;99.90;;;;;;4999079;28;20068;-44
2023/03/14 00:03:54;;;;;;;5.68;2.10;;;13.10;99.90;;;;;;4999623;28;20034;-44
2023/03/14 00:06:20;;;;;;;5.70;1.83;;;13.00;99.90;;;;;;4999204;28;20030;-43
2023/03/14 00:08:46;;;;;;;6.18;2.03;;;13.00;99.90;;;;;;4999730;28;20101;-43
2023/03/14 00:11:15;;;;;;;5.78;2.28;;;13.00;99.90;;;;;;4999587;28;20041;-43
2023/03/14 00:13:40;;;;;;;6.95;2.30;;;13.10;99.90;;;;;;5000120;28;20393;-43
2023/03/14 00:16:08;;;;;;;5.65;2.25;;;13.00;99.90;;;;;;4998645;28;20826;-43
2023/03/14 00:18:35;;;;;;;5.93;2.45;;;13.00;99.90;;;;;;4998735;28;20058;-43
2023/03/14 00:21:02;;;;;;;5.70;2.03;;;13.00;99.90;;;;;;5000233;28;20056;-44
2023/03/14 00:23:29;;;;;;;6.35;1.98;;;13.00;99.90;;;;;;4999181;28;20014;-43
2023/03/14 00:26:02;;;;;;;4.85;2.10;;;12.80;99.90;;;;;;5000201;28;20403;-43
2023/03/14 00:28:28;;;;;;;7.10;2.40;;;12.70;99.90;;;;;;5000170;28;20184;-43
2023/03/14 00:30:54;;;;;;;6.38;1.88;;;12.50;99.90;;;;;;4998970;28;20104;-43
2023/03/14 00:33:21;;;;;;;6.32;2.10;;;12.40;99.90;;;;;;4999420;28;20083;-43
2023/03/14 00:36:14;;;;;;;7.45;2.22;;;12.20;99.90;;;;;;4999770;28;20022;-43
2023/03/14 00:38:40;;;;;;;6.13;1.95;;;12.10;99.90;;;;;;4995728;28;20120;-43
2023/03/14 00:41:11;;;;;;;4.82;1.60;;;12.00;99.90;;;;;;4999639;28;20038;-44
2023/03/14 00:43:37;;;;;;;3.97;1.60;;;11.90;99.90;;;;;;4998532;28;20032;-44
2023/03/14 00:46:07;;;;;;;4.88;1.80;;;11.80;99.90;;;;;;4999431;28;20507;-44
2023/03/14 00:48:33;;;;;;;3.85;1.33;;;11.70;99.90;;;;;;4999755;28;20768;-43
2023/03/14 00:50:59;;;;;;;4.85;1.85;;;11.70;99.90;;;;;;4998215;28;20184;-43
2023/03/14 00:53:24;;;;;;;3.10;1.27;;;11.70;99.90;;;;;;4998952;28;20559;-43
2023/03/14 00:55:50;;;;;;;3.56;1.44;;;11.70;99.90;;;;;;4984188;28;1043605;-43
2023/03/14 00:58:17;;;;;;;6.13;1.73;;;11.70;99.90;;;;;;4998923;28;20460;-44
2023/03/14 01:00:44;;;;;;;4.40;1.65;;;11.70;99.90;;;;;;5000544;28;20025;-44
2023/03/14 01:03:10;;;;;;;6.07;1.95;;;11.60;99.90;;;;;;4999393;28;20140;-43
2023/03/14 01:05:36;;;;;;;6.00;2.08;;;11.60;99.90;;;;;;4999422;28;20109;-43
2023/03/14 01:08:02;;;;;;;3.83;1.60;;;11.50;99.90;;;;;;4999886;28;20750;-44
2023/03/14 01:10:28;;;;;;;4.60;1.52;;;11.60;99.90;;;;;;4998549;28;20029;-44
2023/03/14 01:12:53;;;;;;;4.43;1.70;;;11.50;99.90;;;;;;4999201;28;20651;-44
2023/03/14 01:15:19;;;;;;;5.88;1.30;;;11.60;99.90;;;;;;4999861;28;20080;-43
2023/03/14 01:17:45;;;;;;;7.20;1.90;;;11.60;99.90;;;;;;5000503;28;20034;-43
2023/03/14 01:20:13;;;;;;;4.75;1.75;;;11.60;99.90;;;;;;4999043;28;20382;-43
2023/03/14 01:22:39;;;;;;;4.40;1.83;;;11.60;99.90;;;;;;4999440;28;20028;-42
2023/03/14 01:25:14;;;;;;;4.28;1.40;;;11.60;99.90;;;;;;4999245;28;20088;-43
2023/03/14 01:27:39;;;;;;;8.02;2.20;;;11.60;99.90;;;;;;4998761;28;20026;-44
2023/03/14 01:30:09;;;;;;;6.30;1.70;;;11.60;99.90;;;;;;4998470;28;20036;-44
2023/03/14 01:32:35;;;;;;;4.68;1.90;;;11.70;99.90;;;;;;4998694;28;20038;-44
2023/03/14 01:35:01;;;;;;;5.70;1.70;;;11.70;99.90;;;;;;4999703;28;20050;-43
2023/03/14 01:37:26;;;;;;;6.32;1.52;;;11.70;99.90;;;;;;4999954;28;20207;-44
2023/03/14 01:39:52;;;;;;;6.65;1.73;;;11.70;99.90;;;;;;4998765;28;20374;-44
2023/03/14 01:42:20;;;;;;;7.45;1.98;;;11.60;99.90;;;;;;4998721;28;20120;-44
2023/03/14 01:44:51;;;;;;;11.13;2.10;;;11.60;99.90;;;;;;4998910;28;20029;-44
2023/03/14 01:47:17;;;;;;;7.13;2.10;;;11.60;99.90;;;;;;4998312;28;20034;-44
2023/03/14 01:49:45;;;;;;;4.05;1.40;;;11.50;99.90;;;;;;4998830;28;20088;-43
2023/03/14 01:52:21;;;;;;;6.05;1.67;;;11.50;99.90;;;;;;4995219;28;20116;-44
2023/03/14 01:54:55;;;;;;;7.40;2.10;;;11.50;99.90;;;;;;4997819;28;20049;-44
2023/03/14 01:57:27;;;;;;;7.78;1.90;;;11.40;99.90;;;;;;4995304;28;20045;-43
2023/03/14 01:59:57;;;;;;;6.80;1.50;;;11.30;99.90;;;;;;4999551;28;20026;-43
2023/03/14 02:02:25;;;;;;;4.25;1.52;;;11.20;99.90;;;;;;4998456;28;20044;-43
2023/03/14 02:04:56;;;;;;;7.38;2.05;;;11.20;99.90;;;;;;4999174;28;20030;-43
2023/03/14 02:07:39;;;;;;;4.15;1.70;;;11.10;99.90;;;;;;4997790;28;20095;-43
2023/03/14 02:10:05;;;;;;;6.03;1.92;;;11.00;99.90;;;;;;4997982;28;20026;-43
2023/03/14 02:12:32;;;;;;;5.80;1.80;;;10.90;99.90;;;;;;4999100;28;20174;-43
2023/03/14 02:14:57;;;;;;;7.70;1.83;;;10.80;99.90;;;;;;4998967;28;20084;-44
2023/03/14 02:17:24;;;;;;;7.35;1.85;;;10.70;99.90;;;;;;4998664;28;20036;-43
2023/03/14 02:20:22;;;;;;;5.80;1.73;;;10.70;99.90;;;;;;4999087;28;20053;-43
2023/03/14 02:22:47;;;;;;;8.68;1.60;;;10.60;99.90;;;;;;4998357;28;20087;-42
2023/03/14 02:25:19;;;;;;;9.00;2.13;;;10.60;99.90;;;;;;4998852;28;20662;-43
2023/03/14 02:27:46;;;;;;;6.13;1.85;;;10.60;99.90;;;;;;4999234;28;20033;-43
2023/03/14 02:30:18;;;;;;;6.15;1.95;;;10.60;99.90;;;;;;4998499;28;20030;-43
2023/03/14 02:32:47;;;;;;;4.15;1.65;;;10.50;99.90;;;;;;4999347;28;20037;-43
2023/03/14 02:35:15;;;;;;;6.47;1.88;;;10.50;99.90;;;;;;4998801;28;20029;-43
2023/03/14 02:37:43;;;;;;;7.68;2.05;;;10.50;99.90;;;;;;4997932;28;20500;-43
2023/03/14 02:40:10;;;;;;;3.67;1.40;;;10.50;99.90;;;;;;5000595;28;20096;-43
2023/03/14 02:42:35;;;;;;;5.55;1.65;;;10.40;99.90;;;;;;5002862;28;20120;-44
2023/03/14 02:45:21;;;;;;;4.05;1.25;;;10.40;99.90;;;;;;5001706;28;20514;-43
2023/03/14 02:47:52;;;;;;;7.47;1.80;;;10.40;99.90;;;;;;5002705;28;20033;-43
2023/03/14 02:50:20;;;;;;;4.05;1.52;;;10.40;99.90;;;;;;5002174;28;20029;-44
2023/03/14 02:52:46;;;;;;;3.80;1.20;;;10.40;99.90;;;;;;5002446;28;20030;-44
2023/03/14 02:55:12;;;;;;;6.63;1.27;;;10.40;99.90;;;;;;5002113;28;20036;-44
2023/03/14 02:57:40;;;;;;;6.35;1.88;;;10.40;99.90;;;;;;5001172;28;20050;-44
2023/03/14 03:00:08;;;;;;;6.75;1.50;;;10.40;99.90;;;;;;5001409;28;20166;-43
2023/03/14 03:02:33;;;;;;;5.07;1.60;;;10.50;99.90;;;;;;5002350;28;20038;-44
2023/03/14 03:04:59;;;;;;;3.75;1.20;;;10.40;99.90;;;;;;5001185;28;20080;-44
2023/03/14 03:07:24;;;;;;;4.47;1.23;;;10.40;99.90;;;;;;5001903;28;20034;-44
2023/03/14 03:09:50;;;;;;;6.32;1.77;;;10.40;99.90;;;;;;5001185;28;20111;-44
2023/03/14 03:12:15;;;;;;;5.22;1.50;;;10.50;99.90;;;;;;5001026;28;20065;-43
2023/03/14 03:14:41;;;;;;;6.35;1.20;;;10.40;99.90;;;;;;5001683;28;20053;-42
2023/03/14 03:17:07;;;;;;;10.10;3.10;;;10.40;99.90;;;;;;5001747;28;20030;-44
2023/03/14 03:19:33;;;;;;;3.10;1.30;;;10.40;99.90;;;;;;5001385;28;20386;-43
2023/03/14 03:21:59;;;;;;;2.78;1.40;;;10.40;99.90;;;;;;5001163;28;20101;-44
2023/03/14 03:24:28;;;;;;;6.35;1.88;;;10.40;99.90;;;;;;5001651;28;20021;-43
2023/03/14 03:26:53;;;;;;;3.58;1.38;;;10.40;99.90;;;;;;5001484;28;20037;-43
2023/03/14 03:29:19;;;;;;;4.22;1.25;;;10.40;99.90;;;;;;5001193;28;20029;-44
2023/03/14 03:31:47;;;;;;;5.25;1.48;;;10.40;99.90;;;;;;5001405;28;20747;-44
2023/03/14 03:34:14;;;;;;;4.50;1.38;;;10.40;99.90;;;;;;4998712;28;20855;-42
2023/03/14 03:36:39;;;;;;;5.15;1.52;;;10.40;99.90;;;;;;5001782;28;20120;-43
2023/03/14 03:39:05;;;;;;;6.68;1.60;;;10.50;99.90;;;;;;5000853;28;20125;-43
2023/03/14 03:41:31;;;;;;;6.50;1.60;;;10.40;99.90;;;;;;5001436;28;20030;-43
2023/03/14 03:43:57;;;;;;;6.82;1.75;;;10.40;99.90;;;;;;5001049;28;20026;-43
2023/03/14 03:46:23;;;;;;;5.90;1.70;;;10.40;99.90;;;;;;5000344;28;20030;-42
2023/03/14 03:48:53;;;;;;;6.75;2.00;;;10.40;99.90;;;;;;5001272;28;20029;-43
2023/03/14 03:51:19;;;;;;;5.18;1.60;;;10.50;99.90;;;;;;5000211;28;20200;-42
2023/03/14 03:53:44;;;;;;;9.25;2.20;;;10.50;99.90;;;;;;5001411;28;20025;-43
2023/03/14 03:56:10;;;;;;;9.50;2.28;;;10.50;99.90;;;;;;5000035;28;20025;-43
2023/03/14 03:58:37;;;;;;;10.55;2.35;;;10.50;99.90;;;;;;5001572;28;20700;-43
2023/03/14 04:01:03;;;;;;;7.30;2.35;;;10.50;99.90;;;;;;4999529;28;20054;-43
2023/03/14 04:03:28;;;;;;;8.20;2.00;;;10.50;99.90;;;;;;5000665;28;20128;-42
2023/03/14 04:06:09;;;;;;;8.90;2.17;;;10.50;99.90;;;;;;5000713;28;20029;-43
2023/03/14 04:08:35;;;;;;;6.30;1.92;;;10.50;99.90;;;;;;4981499;28;20116;-43
2023/03/14 04:11:02;;;;;;;11.07;2.28;;;10.60;99.90;;;;;;4995767;28;20022;-43
2023/03/14 04:13:28;;;;;;;8.35;2.50;;;10.60;99.90;;;;;;5001005;28;20030;-43
2023/03/14 04:15:54;;;;;;;7.47;2.10;;;10.60;99.90;;;;;;5000147;28;20026;-44
2023/03/14 04:18:20;;;;;;;8.93;2.03;;;10.50;99.90;;;;;;5000504;28;20088;-43
2023/03/14 04:20:51;;;;;;;7.35;2.42;;;10.60;99.90;;;;;;5000682;28;20107;-43
2023/03/14 04:23:16;;;;;;;6.47;1.92;;;10.50;99.90;;;;;;4999053;28;20537;-43
2023/03/14 04:25:44;;;;;;;7.22;2.20;;;10.50;99.90;;;;;;5000331;28;20076;-43
2023/03/14 04:28:10;;;;;;;7.35;2.30;;;10.60;99.90;;;;;;4999394;28;20032;-43
2023/03/14 04:30:35;;;;;;;6.75;2.00;;;10.60;99.90;;;;;;5000305;28;20030;-43
2023/03/14 04:33:01;;;;;;;7.68;1.88;;;10.60;99.90;;;;;;5000191;28;20037;-44
2023/03/14 04:35:26;;;;;;;6.18;1.85;;;10.60;99.90;;;;;;4999589;28;20539;-44
2023/03/14 04:37:52;;;;;;;8.55;1.88;;;10.70;99.90;;;;;;5000293;28;20038;-44
2023/03/14 04:40:18;;;;;;;10.43;2.03;;;10.70;99.90;;;;;;5000113;28;20101;-43
2023/03/14 04:42:47;;;;;;;7.53;1.80;;;10.70;99.90;;;;;;4999489;28;20029;-43
2023/03/14 04:45:15;;;;;;;6.00;1.70;;;10.70;99.90;;;;;;4999691;28;20022;-44
2023/03/14 04:47:41;;;;;;;7.32;1.70;;;10.70;99.90;;;;;;4999787;28;20779;-44
2023/03/14 04:50:07;;;;;;;8.77;1.77;;;10.70;99.90;;;;;;4998703;28;20100;-44
2023/03/14 04:52:33;;;;;;;6.05;1.60;;;10.80;99.90;;;;;;4999935;28;20096;-43
2023/03/14 04:54:59;;;;;;;5.18;1.50;;;10.80;99.90;;;;;;4980977;28;20026;-43
2023/03/14 04:57:24;;;;;;;8.73;2.35;;;10.80;99.90;;;;;;4992947;28;20061;-43
2023/03/14 04:59:50;;;;;;;5.90;1.30;;;10.80;99.90;;;;;;4999730;28;20053;-43
2023/03/14 05:02:15;;;;;;;5.18;1.65;;;10.80;99.90;;;;;;4999268;28;20030;-43
2023/03/14 05:04:41;;;;;;;6.55;1.88;;;10.90;99.90;;;;;;5000243;28;20029;-43
2023/03/14 05:07:06;;;;;;;6.55;1.65;;;10.90;99.90;;;;;;4999465;28;20040;-43
2023/03/14 05:09:32;;;;;;;5.10;1.42;;;10.90;99.90;;;;;;5000884;28;20026;-43
2023/03/14 05:11:57;;;;;;;3.33;1.20;;;10.90;99.90;;;;;;4999402;28;20036;-43
2023/03/14 05:14:23;;;;;;;6.97;1.77;;;10.80;99.90;;;;;;5000329;28;20022;-44
2023/03/14 05:16:48;;;;;;;5.88;1.60;;;10.80;99.90;;;;;;5000675;28;20136;-44
2023/03/14 05:19:17;;;;;;;5.10;1.30;;;10.80;99.90;;;;;;4998801;28;20022;-44
2023/03/14 05:21:42;;;;;;;4.18;1.20;;;10.80;99.90;;;;;;5000383;28;20079;-42
2023/03/14 05:24:08;;;;;;;3.95;1.40;;;10.80;99.90;;;;;;4999108;28;20030;-43
2023/03/14 05:26:34;;;;;;;5.30;1.10;;;10.80;99.90;;;;;;4999622;28;20761;-44
2023/03/14 05:28:59;;;;;;;4.72;1.40;;;10.80;99.90;;;;;;4999503;28;20396;-43
2023/03/14 05:31:25;;;;;;;4.10;1.10;;;10.80;99.90;;;;;;4999795;28;20133;-43
2023/03/14 05:33:50;;;;;;;3.22;1.00;;;10.80;99.90;;;;;;4999574;28;20125;-44
2023/03/14 05:36:16;;;;;;;6.80;1.08;;;10.80;99.90;;;;;;4999183;28;20109;-44
2023/03/14 05:38:41;;;;;;;3.25;1.00;;;10.80;99.90;;;;;;4999914;28;20760;-43
2023/03/14 05:41:07;;;;;;;3.90;1.42;;;10.80;99.90;;;;;;4998751;28;20716;-43
2023/03/14 05:43:33;;;;;;;2.20;0.90;;;10.80;99.90;;;;;;5000028;28;20102;-43
2023/03/14 05:45:58;;;;;;;2.40;0.90;;;10.70;99.90;;;;;;4998534;28;20030;-43
2023/03/14 05:48:24;;;;;;;3.10;1.10;;;10.80;99.90;;;;;;4998994;28;20091;-43
2023/03/14 05:50:59;;;;;;;4.20;1.20;;;10.70;99.90;;;;;;4999942;28;20073;-43
2023/03/14 05:53:25;;;;;;;4.63;1.25;;;10.70;99.90;;;;;;4998676;28;20034;-43
2023/03/14 05:55:54;;;;;;;2.70;0.90;;;10.70;99.90;;;;;;4999954;28;20025;-42
2023/03/14 05:58:19;;;;;;;3.30;1.00;;;10.70;99.90;;;;;;4998734;28;20054;-44
2023/03/14 06:00:45;;;;;;;4.07;1.00;;;10.70;99.90;;;;;;4998473;28;20025;-44
2023/03/14 06:03:11;;;;;;;6.03;1.80;;;10.60;99.90;;;;;;4999071;28;20026;-44
2023/03/14 06:05:36;;;;;;;5.95;2.33;;;10.60;99.90;;;;;;4999448;28;20076;-44
2023/03/14 06:08:02;;;;;;;3.75;2.08;;;10.60;99.90;;;;;;4998427;28;20671;-44
2023/03/14 06:10:28;;;;;;;3.88;1.80;;;10.60;99.90;;;;;;4998787;28;20564;-43
2023/03/14 06:12:53;;;;;;;4.80;1.40;;;10.60;99.90;;;;;;4999676;28;20422;-44
2023/03/14 06:15:19;;;;;;;3.25;1.20;;;10.50;99.90;;;;;;5000632;28;20026;-44
2023/03/14 06:17:44;;;;;;;3.33;1.20;;;10.60;99.90;;;;;;4983166;28;20132;-44
2023/03/14 06:20:10;;;;;;;3.85;1.35;;;10.50;99.90;;;;;;4996730;28;20041;-44
2023/03/14 06:22:36;;;;;;;2.80;1.00;;;10.60;99.90;;;;;;5003534;28;20049;-44
2023/03/14 06:25:03;;;;;;;2.20;1.02;;;10.60;99.90;;;;;;5002327;28;20470;-43
2023/03/14 06:27:29;;;;;;;3.50;1.45;;;10.60;99.90;;;;;;5002593;28;20160;-43
2023/03/14 06:29:54;;;;;;;3.20;1.70;;;10.60;99.90;;;;;;5002048;28;20022;-44
2023/03/14 06:32:20;;;;;;;3.85;1.83;;;10.50;99.90;;;;;;5001708;28;20038;-43
2023/03/14 06:34:49;;;;;;;3.88;1.90;;;10.50;99.90;;;;;;5002574;28;20021;-44
2023/03/14 06:37:14;;;;;;;3.78;1.98;;;10.50;99.90;;;;;;5000643;28;20037;-44
2023/03/14 06:39:40;;;;;;;4.72;2.00;;;10.50;99.90;;;;;;5001805;28;20022;-44
2023/03/14 06:42:06;;;;;;;3.03;1.83;;;10.50;99.90;;;;;;4998868;28;20049;-43
2023/03/14 06:44:31;;;;;;;4.45;1.92;;;10.60;99.90;;;;;;5001838;28;20022;-44
2023/03/14 06:46:57;;;;;;;5.93;1.90;;;10.60;99.90;;;;;;5001382;28;20064;-43
2023/03/14 06:49:22;;;;;;;3.70;1.80;;;10.60;99.90;;;;;;5000016;28;20040;-43
2023/03/14 06:51:48;;;;;;;3.80;2.22;;;10.60;99.90;;;;;;5002389;28;20068;-44
2023/03/14 06:54:14;;;;;;;4.57;2.30;;;10.60;99.90;;;;;;4985595;28;20105;-43
2023/03/14 06:56:40;;;;;;;4.72;2.42;;;10.60;99.90;;;;;;4998479;28;20041;-43
2023/03/14 06:59:05;;;;;;;4.22;2.03;;;10.60;99.90;;;;;;4999077;28;20029;-44
2023/03/14 07:01:34;;;;;;;2.47;2.00;;;10.60;99.90;;;;;;4999049;28;20880;-44
2023/03/14 07:04:01;;;;;;;5.53;3.53;;;10.60;99.90;;;;;;4998423;28;20116;-43
2023/03/14 07:06:29;;;;;;;4.13;2.58;;;10.70;99.90;;;;;;4998490;28;20571;-43
2023/03/14 07:08:55;;;;;;;4.43;2.90;;;10.70;99.90;;;;;;4998446;28;20040;-44
2023/03/14 07:11:20;;;;;;;3.70;2.50;;;10.70;99.90;;;;;;4996981;28;20044;-44
2023/03/14 07:13:46;;;;;;;3.47;2.30;;;10.80;99.90;;;;;;4997751;28;20750;-43
2023/03/14 07:16:12;;;;;;;5.45;2.80;;;10.80;99.90;;;;;;4997403;28;20041;-43
2023/03/14 07:18:37;;;;;;;5.38;2.80;;;10.80;99.90;;;;;;4997608;28;20041;-43
2023/03/14 07:21:03;;;;;;;5.38;3.15;;;10.90;99.90;;;;;;4997340;28;20033;-43
2023/03/14 07:23:30;;;;;;;3.53;2.60;;;10.90;99.90;;;;;;4998430;28;20100;-43
2023/03/14 07:25:56;;;;;;;4.70;2.90;;;10.80;99.90;;;;;;4996942;28;20092;-42
2023/03/14 07:28:25;;;;;;;4.15;2.60;;;10.70;99.90;;;;;;4998068;28;20121;-43
2023/03/14 07:30:50;;;;;;;3.85;2.40;;;10.70;99.90;;;;;;4997456;28;20056;-43
2023/03/14 07:33:16;;;;;;;4.85;2.80;;;10.50;99.90;;;;;;4996640;28;20781;-43
2023/03/14 07:35:49;;;;;;;3.50;2.30;;;10.40;99.90;;;;;;4998560;28;20022;-43
2023/03/14 07:38:16;;;;;;;2.00;1.65;;;10.30;99.90;;;;;;4997868;28;20072;-43
2023/03/14 07:40:41;;;;;;;2.15;1.48;;;10.20;99.90;;;;;;4997659;28;20382;-43
2023/03/14 07:43:07;;;;;;;3.10;1.73;;;10.00;99.90;;;;;;4997826;28;20029;-43
2023/03/14 07:45:33;;;;;;;2.40;1.33;;;9.80;99.90;;;;;;4997521;28;20029;-43
2023/03/14 07:47:58;;;;;;;2.13;1.40;;;9.70;99.90;;;;;;4997620;28;20034;-43
2023/03/14 07:50:25;;;;;;;2.42;0.90;;;9.50;99.90;;;;;;4998330;28;20663;-43
2023/03/14 07:52:51;;;;;;;2.45;1.20;;;9.40;99.90;;;;;;4997873;28;20176;-43
2023/03/14 07:55:17;;;;;;;1.42;1.00;;;9.30;99.90;;;;;;4997659;28;20469;-43
2023/03/14 07:57:42;;;;;;;1.48;1.00;;;9.20;99.90;;;;;;4997731;28;20061;-43
2023/03/14 08:00:09;;;;;;;3.33;1.10;;;9.10;99.90;;;;;;4997204;28;20024;-43
2023/03/14 08:02:36;;;;;;;1.95;1.00;;;9.00;99.90;;;;;;4979963;28;20390;-43
2023/03/14 08:05:02;;;;;;;2.25;0.98;;;9.00;99.90;;;;;;4994094;28;20022;-43
2023/03/14 08:07:27;;;;;;;2.33;1.00;;;8.90;99.90;;;;;;4997338;28;20744;-44
2023/03/14 08:09:53;;;;;;;1.60;1.10;;;8.80;99.90;;;;;;4997588;28;20030;-43
2023/03/14 08:12:21;;;;;;;3.15;0.80;;;8.80;99.90;;;;;;4997276;28;20041;-43
2023/03/14 08:14:47;;;;;;;2.85;1.55;;;8.70;99.90;;;;;;4995650;28;20140;-42
2023/03/14 08:17:12;;;;;;;2.30;0.90;;;8.60;99.90;;;;;;4996049;28;20030;-43
2023/03/14 08:19:38;;;;;;;1.55;0.90;;;8.60;99.90;;;;;;4997530;28;20029;-44
2023/03/14 08:22:04;;;;;;;2.70;0.95;;;8.50;99.90;;;;;;4996552;28;20065;-43
2023/03/14 08:24:30;;;;;;;2.45;1.08;;;8.50;99.90;;;;;;4998540;28;20065;-42
2023/03/14 08:26:55;;;;;;;2.17;0.70;;;8.50;99.90;;;;;;4997915;28;20815;-43
2023/03/14 08:29:21;;;;;;;2.08;0.90;;;8.40;99.90;;;;;;4996491;28;20022;-43
2023/03/14 08:31:48;;;;;;;1.95;1.00;;;8.50;99.90;;;;;;4997903;28;20038;-43
2023/03/14 08:34:17;;;;;;;1.27;0.88;;;8.60;99.90;;;;;;4997433;28;20029;-43
2023/03/14 08:36:42;;;;;;;1.58;0.70;;;8.60;99.90;;;;;;4997001;28;20034;-44
2023/03/14 08:39:08;;;;;;;2.35;0.85;;;8.60;99.90;;;;;;4996808;28;20715;-43
2023/03/14 08:41:39;;;;;;;3.30;0.93;;;8.60;99.90;;;;;;4998880;28;20145;-43
2023/03/14 08:44:06;;;;;;;4.32;1.00;;;8.50;99.90;;;;;;4996864;28;20022;-43
2023/03/14 08:46:31;;;;;;;3.33;0.90;;;8.30;99.90;;;;;;4998054;28;20037;-44
2023/03/14 08:48:57;;;;;;;5.32;0.95;;;8.30;99.90;;;;;;4996894;28;20018;-44
2023/03/14 08:51:22;;;;;;;5.55;1.00;;;8.10;99.90;;;;;;4997096;28;20026;-44
2023/03/14 08:53:51;;;;;;;8.95;1.40;;;8.00;99.90;;;;;;4996934;28;20030;-43
2023/03/14 08:56:17;;;;;;;4.57;0.98;;;7.80;99.90;;;;;;4995743;28;20036;-43
2023/03/14 08:58:43;;;;;;;4.25;1.10;;;7.80;99.90;;;;;;4996719;28;20465;-44
2023/03/14 09:01:10;;;;;;;3.85;1.08;;;7.70;99.90;;;;;;4996432;28;20118;-43
2023/03/14 09:03:37;;;;;;;3.05;0.93;;;7.60;99.90;;;;;;4996511;28;20451;-43
2023/03/14 09:06:09;;;;;;;4.70;1.30;;;7.60;99.90;;;;;;4996587;28;20026;-43
2023/03/14 09:08:35;;;;;;;3.85;0.98;;;7.60;99.90;;;;;;4997836;28;20668;-43
2023/03/14 09:11:01;;;;;;;4.30;1.00;;;7.50;99.90;;;;;;4996699;28;20493;-44
2023/03/14 09:13:27;;;;;;;3.42;0.70;;;7.50;99.90;;;;;;4997383;28;20073;-44
2023/03/14 09:15:56;;;;;;;5.47;0.80;;;7.50;99.90;;;;;;4996318;28;20037;-44
2023/03/14 09:18:22;;;;;;;4.70;1.00;;;7.60;99.90;;;;;;4995780;28;20124;-44
2023/03/14 09:20:51;;;;;;;4.03;0.85;;;7.60;99.90;;;;;;4996912;28;20032;-44
2023/03/14 09:23:16;;;;;;;1.52;0.50;;;7.60;99.90;;;;;;4996037;28;20082;-43
2023/03/14 09:25:42;;;;;;;3.45;0.57;;;7.50;99.90;;;;;;4995529;28;20042;-43
2023/03/14 09:28:07;;;;;;;3.70;0.55;;;7.50;99.90;;;;;;4996021;28;20141;-44
2023/03/14 09:30:33;;;;;;;4.35;0.63;;;7.50;99.90;;;;;;4995883;28;20070;-43
2023/03/14 09:32:59;;;;;;;3.40;0.93;;;7.50;99.90;;;;;;4995182;28;20034;-44
2023/03/14 09:35:25;;;;;;;4.25;0.52;;;7.60;99.90;;;;;;4996099;28;20028;-44
2023/03/14 09:37:51;;;;;;;3.92;0.90;;;7.60;99.90;;;;;;4996057;28;20334;-44
2023/03/14 09:40:19;;;;;;;3.10;0.80;;;7.70;99.90;;;;;;4995791;28;20037;-44
2023/03/14 09:42:48;;;;;;;3.00;0.82;;;7.70;99.90;;;;;;4995790;28;20018;-43
2023/03/14 09:45:28;;;;;;;6.05;1.17;;;7.70;99.90;;;;;;4995224;28;20022;-43
2023/03/14 09:47:56;;;;;;;3.20;1.10;;;7.70;99.90;;;;;;4995447;28;20026;-44
2023/03/14 09:50:23;;;;;;;4.05;0.90;;;7.70;99.90;;;;;;4998426;28;20034;-44
2023/03/14 09:53:02;;;;;;;3.33;1.10;;;7.70;99.90;;;;;;4999693;28;20037;-44
2023/03/14 09:55:27;;;;;;;8.77;1.30;;;7.80;99.90;;;;;;5000575;28;20397;-43
2023/03/14 09:57:59;;;;;;;5.90;1.00;;;7.80;99.90;;;;;;5000845;28;20065;-43
2023/03/14 10:00:28;;;;;;;4.47;1.05;;;7.80;99.90;;;;;;4999693;28;20033;-43
2023/03/14 10:03:20;;;;;;;5.82;0.70;;;7.80;99.90;;;;;;5000430;28;20034;-43
2023/03/14 10:05:46;;;;;;;5.53;0.80;;;7.80;99.90;;;;;;4999732;28;20168;-43
2023/03/14 10:08:13;;;;;;;2.40;0.90;;;7.80;99.90;;;;;;4998572;28;20687;-43
2023/03/14 10:10:40;;;;;;;7.28;1.35;;;7.90;99.90;;;;;;4999601;28;20528;-43
2023/03/14 10:13:19;;;;;;;7.93;1.40;;;7.90;99.90;;;;;;4998971;28;20045;-44
2023/03/14 10:15:53;;;;;;;8.10;1.60;;;7.90;99.90;;;;;;4998839;28;20108;-43
2023/03/14 10:18:18;;;;;;;8.60;1.60;;;8.00;99.90;;;;;;4999688;28;20037;-44
2023/03/14 10:20:47;;;;;;;11.07;1.80;;;8.00;99.90;;;;;;4999324;28;20677;-43
2023/03/14 10:23:12;;;;;;;7.45;1.50;;;8.00;99.90;;;;;;4999188;28;20026;-44
2023/03/14 10:25:40;;;;;;;11.32;2.75;;;8.00;99.90;;;;;;4999801;28;20437;-42
2023/03/14 10:28:33;;;;;;;12.02;2.50;;;8.10;99.90;;;;;;4997969;28;20068;-44
2023/03/14 10:30:59;;;;;;;9.85;1.70;;;8.20;99.90;;;;;;4999539;28;20026;-43
2023/03/14 10:33:29;;;;;;;10.23;2.08;;;8.20;99.90;;;;;;4998709;28;20054;-44
2023/03/14 10:36:00;;;;;;;9.98;2.35;;;8.30;99.90;;;;;;4998401;28;20592;-43
2023/03/14 10:38:34;;;;;;;16.52;2.40;;;8.30;99.90;;;;;;4998923;28;20026;-44
2023/03/14 10:41:01;;;;;;;13.38;2.97;;;8.40;99.90;;;;;;4999427;28;20045;-44
2023/03/14 10:43:35;;;;;;;15.57;2.38;;;8.50;99.90;;;;;;4998608;28;20037;-44
2023/03/14 10:46:08;;;;;;;20.80;3.65;;;8.50;99.90;;;;;;4999519;28;20034;-44
2023/03/14 10:48:40;;;;;;;14.20;3.13;;;8.40;99.90;;;;;;4998599;28;20034;-44
2023/03/14 10:51:29;;;;;;;16.47;2.70;;;8.50;99.90;;;;;;4999447;28;20040;-44
2023/03/14 10:54:04;;;;;;;11.90;2.63;;;8.60;99.90;;;;;;4988417;28;20414;-43
2023/03/14 10:56:37;;;;;;;14.88;2.35;;;8.70;99.90;;;;;;4999600;28;20042;-44
2023/03/14 10:59:09;;;;;;;12.18;2.33;;;8.70;99.90;;;;;;4998877;28;20033;-43
2023/03/14 11:01:49;;;;;;;9.95;1.73;;;8.50;99.90;;;;;;4998967;28;20018;-43
2023/03/14 11:04:54;;;;;;;12.05;2.15;;;8.10;99.90;;;;;;4996001;28;20026;-43
2023/03/14 11:07:41;;;;;;;17.58;3.22;;;7.70;99.90;;;;;;4998323;28;20029;-43
2023/03/14 11:10:30;;;;;;;14.48;2.70;;;7.50;99.90;;;;;;4998006;28;20033;-43
2023/03/14 11:13:27;;;;;;;17.70;3.10;;;7.40;99.90;;;;;;4998984;28;20112;-43
2023/03/14 11:16:14;;;;;;;17.58;2.92;;;7.40;99.90;;;;;;4994781;28;20057;-43
2023/03/14 11:18:55;;;;;;;15.50;3.13;;;7.40;99.90;;;;;;4996052;28;20095;-44
2023/03/14 11:21:29;;;;;;;16.38;3.05;;;7.40;99.90;;;;;;4997586;28;20065;-43
2023/03/14 11:24:19;;;;;;;20.10;3.00;;;7.50;99.90;;;;;;4997858;28;20060;-43
2023/03/14 11:26:55;;;;;;;15.77;2.90;;;7.50;99.90;;;;;;4998979;28;20459;-43
2023/03/14 11:29:27;;;;;;;22.08;3.33;;;7.60;99.90;;;;;;4997613;28;20164;-43
2023/03/14 11:31:57;;;;;;;21.45;2.88;;;7.60;99.90;;;;;;4998294;28;20069;-44
2023/03/14 11:34:35;;;;;;;20.30;3.17;;;7.60;99.90;;;;;;4998856;28;20021;-44
2023/03/14 11:37:07;;;;;;;15.60;2.97;;;7.70;99.90;;;;;;4999153;28;20026;-44
2023/03/14 11:39:51;;;;;;;23.42;3.30;;;7.70;99.90;;;;;;4998316;28;20049;-44
2023/03/14 11:42:17;;;;;;;15.80;2.58;;;7.70;99.90;;;;;;4997355;28;20567;-43
2023/03/14 11:44:49;;;;;;;17.88;3.17;;;7.70;99.90;;;;;;4997618;28;20469;-43
2023/03/14 11:47:22;;;;;;;16.17;3.60;;;7.80;99.90;;;;;;4998239;28;20037;-43
2023/03/14 11:49:56;;;;;;;16.08;2.83;;;7.90;99.90;;;;;;4998358;28;20282;-44
2023/03/14 11:52:43;;;;;;;12.57;2.78;;;8.00;99.90;;;;;;4997601;28;20046;-43
2023/03/14 11:55:25;;;;;;;14.75;2.92;;;8.00;99.90;;;;;;4997681;28;20041;-43
2023/03/14 11:57:53;;;;;;;16.90;3.63;;;7.90;99.90;;;;;;4996600;28;20065;-44
2023/03/14 12:00:23;;;;;;;8.85;2.58;;;7.80;99.90;;;;;;4996273;28;20057;-44
2023/03/14 12:03:13;;;;;;;13.50;2.90;;;7.70;99.90;;;;;;4998147;28;20131;-44
2023/03/14 12:06:14;;;;;;;14.55;2.38;;;7.70;99.90;;;;;;4996772;28;20038;-42
2023/03/14 12:08:42;;;;;;;15.57;2.53;;;7.70;99.90;;;;;;4987020;28;20048;-44
2023/03/14 12:11:17;;;;;;;11.55;2.72;;;7.70;99.90;;;;;;4997777;28;20025;-44
2023/03/14 12:13:48;;;;;;;11.00;2.20;;;7.70;99.90;;;;;;4996187;28;20092;-43
2023/03/14 12:16:29;;;;;;;11.73;2.38;;;7.70;99.90;;;;;;4997423;28;20022;-43
2023/03/14 12:18:55;;;;;;;15.68;2.33;;;7.70;99.90;;;;;;4998031;28;20038;-43
2023/03/14 12:21:22;;;;;;;12.00;2.10;;;7.70;99.90;;;;;;4996401;28;20076;-44
2023/03/14 12:23:51;;;;;;;11.07;2.38;;;7.70;99.90;;;;;;4997596;28;20026;-44
2023/03/14 12:26:20;;;;;;;14.07;2.17;;;7.60;99.90;;;;;;4997218;28;20032;-44
2023/03/14 12:28:56;;;;;;;8.93;2.03;;;7.70;99.90;;;;;;4996176;28;20564;-43
2023/03/14 12:31:31;;;;;;;9.23;1.80;;;7.70;99.90;;;;;;4996902;28;20618;-43
2023/03/14 12:34:09;;;;;;;8.98;1.60;;;7.70;99.90;;;;;;4996632;28;20235;-43
2023/03/14 12:36:50;;;;;;;5.05;1.60;;;7.70;98.10;;;;;;4997334;28;20072;-44
2023/03/14 12:39:22;;;;;;;6.38;1.63;;;7.70;97.40;;;;;;4994373;28;20034;-43
2023/03/14 12:42:02;;;;;;;7.32;1.65;;;7.70;97.00;;;;;;4996853;28;20049;-43
2023/03/14 12:44:31;;;;;;;14.02;2.30;;;7.80;96.40;;;;;;4997550;28;20030;-43
2023/03/14 12:47:14;;;;;;;9.68;1.77;;;7.70;96.20;;;;;;4997128;28;20034;-45
2023/03/14 12:49:39;;;;;;;8.27;1.90;;;7.80;95.90;;;;;;4994606;28;20673;-43
2023/03/14 12:52:18;;;;;;;9.48;1.83;;;7.80;96.70;;;;;;4996607;28;20032;-46
2023/03/14 12:54:53;;;;;;;8.38;1.90;;;7.90;97.00;;;;;;4995466;28;20053;-44
2023/03/14 12:57:36;;;;;;;15.10;2.28;;;8.00;97.00;;;;;;4995906;28;20061;-43